Terminal Aerodrome Forecast
Issued by NWS

Home | Current Version | Previous Version | Text Only | Print | Product List | Glossary On
Versions: 1 2 3 4 5 6 7 8 9 10 11 12 13 14
027
FTUS45 KABQ 221735
TAFROW
TAF
KROW 221735Z 2218/2318 14010KT P6SM FEW080
     FM230000 18011KT P6SM VCTS SCT080CB
     FM230300 19008KT P6SM SCT100
     FM230800 01008KT P6SM VCSH SCT050
     FM231200 06008KT P6SM FEW050 SCT100=

USA.gov is the U.S. government's official web portal to all federal, state and local government web resources and services.